Wilson Gaeta — 8PTS — position and weather

sailwx.info

Track history (hours):
 
Tides and Currents Weather Stations Pressure Air Temp Water Temp Dewpoint Dewpoint Depression Visibility Wind Speed Wind Dir Waves Ship Positions

Wilson Gaeta

Last reported at 2014-Dec-18 13:15 UTC. Time now 2014-Dec-19 15:10 UTC.
Position N 37°31' W 000°38'.

Length 88 m; draft 5.3 m.

Type: Cargo ship. MMSI: 314237000.

Date/timePositionNaut miles runAvg speedWind from/ knotsBaromVisibWave heightAir tempDewpointWater temp
2014-Dec-18 13:15N 37°31' W 000°38'7 9.2
2014-Dec-18 12:28N 37°38' W 000°33'8 9.4
2014-Dec-18 11:33N 37°46' W 000°36'10 9.5
2014-Dec-18 10:33N 37°55' W 000°40'3 3.0
2014-Dec-18 09:29N 37°58' W 000°41'0 0.0
2014-Dec-18 08:29N 37°58' W 000°41'0 0.0
2014-Dec-18 07:29N 37°58' W 000°41'0 0.0
2014-Dec-18 06:29N 37°58' W 000°41'0 0.0
2014-Dec-18 05:29N 37°58' W 000°41'0 0.0
2014-Dec-18 04:29N 37°58' W 000°41'0 0.0
2014-Dec-18 03:29N 37°58' W 000°41'0 0.0
2014-Dec-18 02:29N 37°58' W 000°41'0 0.0
2014-Dec-18 01:29N 37°58' W 000°41'0 0.0
2014-Dec-18 00:29N 37°58' W 000°41'0 0.0
2014-Dec-17 23:29N 37°58' W 000°41'0 0.0
2014-Dec-17 22:29N 37°58' W 000°41'0 0.0
2014-Dec-17 21:29N 37°58' W 000°41'0 0.0
2014-Dec-17 20:29N 37°58' W 000°41'0 0.0
2014-Dec-17 19:29N 37°58' W 000°41'0 0.0
2014-Dec-17 18:29N 37°58' W 000°41'0 0.0
2014-Dec-17 17:29N 37°58' W 000°41'0 0.0
2014-Dec-17 16:29N 37°58' W 000°41'0 0.0
2014-Dec-17 15:29N 37°58' W 000°41'0 0.0
2014-Dec-17 14:29N 37°58' W 000°41'0 0.0
2014-Dec-17 13:29N 37°58' W 000°41'0 0.0
2014-Dec-17 12:29N 37°58' W 000°41'0 0.0
2014-Dec-17 11:29N 37°58' W 000°41'0 0.0
2014-Dec-17 10:29N 37°58' W 000°41'0 0.0
2014-Dec-17 09:29N 37°58' W 000°41'0 0.0
2014-Dec-17 08:29N 37°58' W 000°41'0 0.0
2014-Dec-17 07:29N 37°58' W 000°41'0 0.0
2014-Dec-17 06:29N 37°58' W 000°41'0 0.0
2014-Dec-17 05:29N 37°58' W 000°41'0 0.0
2014-Dec-17 04:29N 37°58' W 000°41'0 0.0
2014-Dec-17 03:29N 37°58' W 000°41'0 0.0
2014-Dec-17 02:29N 37°58' W 000°41'0 0.0
2014-Dec-17 01:29N 37°58' W 000°41'0 0.0
2014-Dec-17 00:29N 37°58' W 000°41'0 0.0
2014-Dec-16 23:29N 37°58' W 000°41'0 0.0
2014-Dec-16 22:29N 37°58' W 000°41'0 0.0
2014-Dec-16 21:29N 37°58' W 000°41'0 0.0
2014-Dec-16 20:29N 37°58' W 000°41'0 0.0
2014-Dec-16 19:29N 37°58' W 000°41'0 0.0
2014-Dec-16 18:29N 37°58' W 000°41'0 0.0
2014-Dec-16 17:29N 37°58' W 000°41'0 0.0
2014-Dec-16 16:29N 37°58' W 000°41'0 0.0
2014-Dec-16 15:29N 37°58' W 000°41'0 0.0
2014-Dec-16 14:23N 37°58' W 000°41'0 0.0
2014-Dec-16 13:29N 37°58' W 000°41'0 0.0
2014-Dec-16 12:29N 37°58' W 000°41'0 0.0
2014-Dec-16 11:29N 37°58' W 000°41'0 0.0
2014-Dec-16 10:29N 37°58' W 000°41'0 0.0
2014-Dec-16 09:29N 37°58' W 000°41'0 0.0
2014-Dec-16 08:29N 37°58' W 000°41'0 0.0
2014-Dec-16 07:29N 37°58' W 000°41'0 0.0
2014-Dec-16 06:29N 37°58' W 000°41'0 0.0
2014-Dec-16 05:29N 37°58' W 000°41'0 0.0
2014-Dec-16 04:30N 37°58' W 000°41'0 0.0
2014-Dec-16 03:29N 37°58' W 000°41'0 0.0
2014-Dec-16 01:05N 37°58' W 000°41'0 0.0
2014-Dec-15 23:17N 37°58' W 000°41'0 0.0
2014-Dec-15 22:29N 37°58' W 000°41'0 0.0
2014-Dec-15 21:29N 37°58' W 000°41'0 0.0
2014-Dec-15 20:29N 37°58' W 000°41'0 0.0
2014-Dec-15 19:29N 37°58' W 000°41'0 0.0
2014-Dec-15 18:32N 37°58' W 000°41'0 0.0
2014-Dec-15 17:32N 37°58' W 000°41'0 0.0
2014-Dec-15 16:23N 37°58' W 000°41'0 0.1
2014-Dec-15 15:33N 37°58' W 000°41'1 0.6
2014-Dec-15 14:29N 37°58' W 000°41'0 0.0
2014-Dec-15 13:29N 37°58' W 000°41'0 0.0
2014-Dec-15 12:29N 37°58' W 000°41'0 0.0
2014-Dec-15 11:29N 37°58' W 000°41'0 0.0
2014-Dec-15 10:29N 37°58' W 000°41'0 0.0
2014-Dec-15 09:29N 37°58' W 000°41'0 0.0
2014-Dec-15 08:29N 37°58' W 000°41'6 6.5
2014-Dec-15 07:33N 37°59' W 000°33'9 8.8
2014-Dec-15 06:33N 38°01' W 000°22'142 8.6
2014-Dec-14 14:05N 38°37' E 002°33'5 9.0
2014-Dec-14 13:32N 38°38' E 002°39'9 9.0
2014-Dec-14 12:32N 38°41' E 002°50'9 8.9
2014-Dec-14 11:33N 38°43' E 003°01'9 9.1
2014-Dec-14 10:32N 38°45' E 003°12'212 9.5
2014-Dec-13 12:18N 39°39' E 007°36'19 8.8
2014-Dec-13 10:05N 39°44' E 008°01'15 9.8
2014-Dec-13 08:32N 39°48' E 008°20'  
2014-Dec-10 04:04N 39°49' E 008°19'4 7.9
2014-Dec-10 03:30N 39°49' E 008°13'10 8.0
2014-Dec-10 02:13N 39°55' E 008°02'206 7.6
2014-Dec-08 23:14N 42°08' E 004°34'15 8.3
2014-Dec-08 21:29N 42°17' E 004°19'24 8.3
2014-Dec-08 18:33N 42°33' E 003°54'9 8.6
2014-Dec-08 17:33N 42°39' E 003°45'9 9.0
2014-Dec-08 16:32N 42°45' E 003°35'10 9.0
2014-Dec-08 15:25N 42°51' E 003°25'9 9.7
2014-Dec-08 14:28N 42°57' E 003°15'9 8.5
2014-Dec-08 13:24N 43°01' E 003°04'  
Track history (hours):
 
Tides and Currents Weather Stations Pressure Air Temp Water Temp Dewpoint Dewpoint Depression Visibility Wind Speed Wind Dir Waves Ship Positions

Wilson Gaeta

Last reported at 2014-Dec-18 13:15 UTC. Time now 2014-Dec-19 15:10 UTC.
Position N 37°31' W 000°38'.

Length 88 m; draft 5.3 m.

Type: Cargo ship. MMSI: 314237000.

Date/timePositionNaut miles runAvg speedWind from/ knotsBaromVisibWave heightAir tempDewpointWater temp
2014-Dec-18 13:15N 37°31' W 000°38'7 9.2
2014-Dec-18 12:28N 37°38' W 000°33'8 9.4
2014-Dec-18 11:33N 37°46' W 000°36'10 9.5
2014-Dec-18 10:33N 37°55' W 000°40'3 3.0
2014-Dec-18 09:29N 37°58' W 000°41'0 0.0
2014-Dec-18 08:29N 37°58' W 000°41'0 0.0
2014-Dec-18 07:29N 37°58' W 000°41'0 0.0
2014-Dec-18 06:29N 37°58' W 000°41'0 0.0
2014-Dec-18 05:29N 37°58' W 000°41'0 0.0
2014-Dec-18 04:29N 37°58' W 000°41'0 0.0
2014-Dec-18 03:29N 37°58' W 000°41'0 0.0
2014-Dec-18 02:29N 37°58' W 000°41'0 0.0
2014-Dec-18 01:29N 37°58' W 000°41'0 0.0
2014-Dec-18 00:29N 37°58' W 000°41'0 0.0
2014-Dec-17 23:29N 37°58' W 000°41'0 0.0
2014-Dec-17 22:29N 37°58' W 000°41'0 0.0
2014-Dec-17 21:29N 37°58' W 000°41'0 0.0
2014-Dec-17 20:29N 37°58' W 000°41'0 0.0
2014-Dec-17 19:29N 37°58' W 000°41'0 0.0
2014-Dec-17 18:29N 37°58' W 000°41'0 0.0
2014-Dec-17 17:29N 37°58' W 000°41'0 0.0
2014-Dec-17 16:29N 37°58' W 000°41'0 0.0
2014-Dec-17 15:29N 37°58' W 000°41'0 0.0
2014-Dec-17 14:29N 37°58' W 000°41'0 0.0
2014-Dec-17 13:29N 37°58' W 000°41'0 0.0
2014-Dec-17 12:29N 37°58' W 000°41'0 0.0
2014-Dec-17 11:29N 37°58' W 000°41'0 0.0
2014-Dec-17 10:29N 37°58' W 000°41'0 0.0
2014-Dec-17 09:29N 37°58' W 000°41'0 0.0
2014-Dec-17 08:29N 37°58' W 000°41'0 0.0
2014-Dec-17 07:29N 37°58' W 000°41'0 0.0
2014-Dec-17 06:29N 37°58' W 000°41'0 0.0
2014-Dec-17 05:29N 37°58' W 000°41'0 0.0
2014-Dec-17 04:29N 37°58' W 000°41'0 0.0
2014-Dec-17 03:29N 37°58' W 000°41'0 0.0
2014-Dec-17 02:29N 37°58' W 000°41'0 0.0
2014-Dec-17 01:29N 37°58' W 000°41'0 0.0
2014-Dec-17 00:29N 37°58' W 000°41'0 0.0
2014-Dec-16 23:29N 37°58' W 000°41'0 0.0
2014-Dec-16 22:29N 37°58' W 000°41'0 0.0
2014-Dec-16 21:29N 37°58' W 000°41'0 0.0
2014-Dec-16 20:29N 37°58' W 000°41'0 0.0
2014-Dec-16 19:29N 37°58' W 000°41'0 0.0
2014-Dec-16 18:29N 37°58' W 000°41'0 0.0
2014-Dec-16 17:29N 37°58' W 000°41'0 0.0
2014-Dec-16 16:29N 37°58' W 000°41'0 0.0
2014-Dec-16 15:29N 37°58' W 000°41'0 0.0
2014-Dec-16 14:23N 37°58' W 000°41'0 0.0
2014-Dec-16 13:29N 37°58' W 000°41'0 0.0
2014-Dec-16 12:29N 37°58' W 000°41'0 0.0
2014-Dec-16 11:29N 37°58' W 000°41'0 0.0
2014-Dec-16 10:29N 37°58' W 000°41'0 0.0
2014-Dec-16 09:29N 37°58' W 000°41'0 0.0
2014-Dec-16 08:29N 37°58' W 000°41'0 0.0
2014-Dec-16 07:29N 37°58' W 000°41'0 0.0
2014-Dec-16 06:29N 37°58' W 000°41'0 0.0
2014-Dec-16 05:29N 37°58' W 000°41'0 0.0
2014-Dec-16 04:30N 37°58' W 000°41'0 0.0
2014-Dec-16 03:29N 37°58' W 000°41'0 0.0
2014-Dec-16 01:05N 37°58' W 000°41'0 0.0
2014-Dec-15 23:17N 37°58' W 000°41'0 0.0
2014-Dec-15 22:29N 37°58' W 000°41'0 0.0
2014-Dec-15 21:29N 37°58' W 000°41'0 0.0
2014-Dec-15 20:29N 37°58' W 000°41'0 0.0
2014-Dec-15 19:29N 37°58' W 000°41'0 0.0
2014-Dec-15 18:32N 37°58' W 000°41'0 0.0
2014-Dec-15 17:32N 37°58' W 000°41'0 0.0
2014-Dec-15 16:23N 37°58' W 000°41'0 0.1
2014-Dec-15 15:33N 37°58' W 000°41'1 0.6
2014-Dec-15 14:29N 37°58' W 000°41'0 0.0
2014-Dec-15 13:29N 37°58' W 000°41'0 0.0
2014-Dec-15 12:29N 37°58' W 000°41'0 0.0
2014-Dec-15 11:29N 37°58' W 000°41'0 0.0
2014-Dec-15 10:29N 37°58' W 000°41'0 0.0
2014-Dec-15 09:29N 37°58' W 000°41'0 0.0
2014-Dec-15 08:29N 37°58' W 000°41'6 6.5
2014-Dec-15 07:33N 37°59' W 000°33'9 8.8
2014-Dec-15 06:33N 38°01' W 000°22'142 8.6
2014-Dec-14 14:05N 38°37' E 002°33'5 9.0
2014-Dec-14 13:32N 38°38' E 002°39'9 9.0
2014-Dec-14 12:32N 38°41' E 002°50'9 8.9
2014-Dec-14 11:33N 38°43' E 003°01'9 9.1
2014-Dec-14 10:32N 38°45' E 003°12'212 9.5
2014-Dec-13 12:18N 39°39' E 007°36'19 8.8
2014-Dec-13 10:05N 39°44' E 008°01'15 9.8
2014-Dec-13 08:32N 39°48' E 008°20'  
2014-Dec-10 04:04N 39°49' E 008°19'4 7.9
2014-Dec-10 03:30N 39°49' E 008°13'10 8.0
2014-Dec-10 02:13N 39°55' E 008°02'206 7.6
2014-Dec-08 23:14N 42°08' E 004°34'15 8.3
2014-Dec-08 21:29N 42°17' E 004°19'24 8.3
2014-Dec-08 18:33N 42°33' E 003°54'9 8.6
2014-Dec-08 17:33N 42°39' E 003°45'9 9.0
2014-Dec-08 16:32N 42°45' E 003°35'10 9.0
2014-Dec-08 15:25N 42°51' E 003°25'9 9.7
2014-Dec-08 14:28N 42°57' E 003°15'9 8.5
2014-Dec-08 13:24N 43°01' E 003°04'  

Dump ship's entire track history